Time;durP1;ratioP1;P1;durP2;ratioP2;P2;SDS_P1;SDS_P2;PMS_P1;PMS_P2;Temp;Humidity;BMP_temperature;BMP_pressure;BME280_temperature;BME280_humidity;BME280_pressure;Samples;Min_cycle;Max_cycle;Signal;HPM_P1;HPM_P2
2022/04/25 00:01:48;;;;;;;;;;;;;;;9.12;71.52;100894.44;5115965;28;19912;-34
2022/04/25 00:04:14;;;;;;;;;;;;;;;9.14;69.82;100889.69;5115971;28;19919;-34
2022/04/25 00:06:39;;;;;;;;;;;;;;;9.17;69.37;100892.75;5116273;28;20400;-34
2022/04/25 00:09:04;;;;;;;;;;;;;;;9.13;69.72;100896.13;5115771;28;20295;-34
2022/04/25 00:11:29;;;;;;;;;;;;;;;9.12;69.74;100897.97;5116257;28;20364;-34
2022/04/25 00:13:55;;;;;;;;;;;;;;;9.13;68.46;100896.94;5114351;28;19911;-34
2022/04/25 00:16:20;;;;;;;;;;;;;;;9.13;71.63;100896.13;5115626;28;19911;-34
2022/04/25 00:18:47;;;;;;;;;;;;;;;9.10;70.27;100907.34;5115513;28;19911;-34
2022/04/25 00:21:12;;;;;;;;;;;;;;;9.09;70.69;100903.00;5115137;28;20019;-34
2022/04/25 00:23:37;;;;;;;;;;;;;;;9.05;69.71;100904.50;5115888;28;20007;-34
2022/04/25 00:26:04;;;;;;;;;;;;;;;9.04;68.62;100900.97;5116071;28;19912;-34
2022/04/25 00:28:29;;;;;;;;;;;;;;;9.06;71.01;100903.44;5115575;28;19912;-34
2022/04/25 00:30:55;;;;;;;;;;;;;;;8.99;70.03;100911.59;5116344;28;19911;-34
2022/04/25 00:33:20;;;;;;;;;;;;;;;8.93;69.90;100907.91;5115156;28;20337;-34
2022/04/25 00:35:45;;;;;;;;;;;;;;;8.90;70.76;100902.94;5115397;28;19912;-34
2022/04/25 00:38:10;;;;;;;;;;;;;;;8.86;70.87;100907.09;5115143;28;19911;-34
2022/04/25 00:40:36;;;;;;;;;;;;;;;8.85;68.45;100910.03;5115527;28;19912;-34
2022/04/25 00:43:02;;;;;;;;;;;;;;;8.86;69.43;100903.59;5115163;28;19958;-34
2022/04/25 00:45:30;;;;;;;;;;;;;;;8.86;69.57;100904.41;5115602;28;20359;-34
2022/04/25 00:47:58;;;;;;;;;;;;;;;8.87;68.54;100903.34;5115025;28;19963;-34
2022/04/25 00:50:23;;;;;;;;;;;;;;;8.83;69.58;100899.44;5115768;28;19918;-34
2022/04/25 00:52:48;;;;;;;;;;;;;;;8.81;69.01;100906.94;5114770;28;20291;-34
2022/04/25 00:55:14;;;;;;;;;;;;;;;8.77;69.42;100895.75;5115293;28;20378;-34
2022/04/25 00:57:39;;;;;;;;;;;;;;;8.75;68.77;100900.53;5115188;28;19918;-34
2022/04/25 01:00:06;;;;;;;;;;;;;;;8.72;68.63;100898.28;5115250;28;19951;-34
2022/04/25 01:02:31;;;;;;;;;;;;;;;8.70;68.74;100897.69;5115030;28;19912;-34
2022/04/25 01:04:57;;;;;;;;;;;;;;;8.68;68.22;100898.91;5115673;28;20017;-34
2022/04/25 01:07:22;;;;;;;;;;;;;;;8.66;69.36;100904.53;5114895;28;20279;-34
2022/04/25 01:09:48;;;;;;;;;;;;;;;8.64;68.49;100900.41;5114704;28;19912;-34
2022/04/25 01:12:13;;;;;;;;;;;;;;;8.58;71.84;100903.97;5114742;28;19911;-34
2022/04/25 01:14:38;;;;;;;;;;;;;;;8.49;69.07;100898.00;5115248;28;19912;-34
2022/04/25 01:17:03;;;;;;;;;;;;;;;8.46;69.69;100895.75;5114959;28;19919;-34
2022/04/25 01:19:29;;;;;;;;;;;;;;;8.48;68.88;100901.72;5114623;28;19915;-34
2022/04/25 01:22:07;;;;;;;;;;;;;;;8.49;69.46;100896.16;5114220;28;20356;-34
2022/04/25 01:27:17;;;;;;;;;;;;;;;8.34;74.27;100892.84;5115083;28;20359;-34
2022/04/25 01:29:43;;;;;;;;;;;;;;;8.27;72.95;100900.16;5114167;28;19912;-34
2022/04/25 01:32:09;;;;;;;;;;;;;;;8.22;72.62;100890.03;5114436;28;19919;-34
2022/04/25 01:34:37;;;;;;;;;;;;;;;8.18;71.38;100904.13;5114280;28;19912;-34
2022/04/25 01:37:05;;;;;;;;;;;;;;;8.15;71.45;100897.31;5114350;28;20481;-33
2022/04/25 01:39:30;;;;;;;;;;;;;;;8.15;70.74;100899.16;5114301;28;20194;-33
2022/04/25 01:41:55;;;;;;;;;;;;;;;8.10;74.13;100899.81;5114540;28;20025;-33
2022/04/25 01:44:20;;;;;;;;;;;;;;;8.02;72.32;100899.22;5113811;28;20363;-33
2022/04/25 01:46:45;;;;;;;;;;;;;;;8.03;72.07;100895.50;5114292;28;20386;-33
2022/04/25 01:49:11;;;;;;;;;;;;;;;8.03;71.65;100901.69;5114147;28;19923;-33
2022/04/25 01:51:38;;;;;;;;;;;;;;;8.00;72.72;100899.41;5114143;28;19991;-33
2022/04/25 01:54:04;;;;;;;;;;;;;;;7.94;73.20;100902.97;5114143;28;20314;-33
2022/04/25 01:56:29;;;;;;;;;;;;;;;7.90;74.66;100907.94;5113803;28;19911;-33
2022/04/25 01:58:54;;;;;;;;;;;;;;;7.88;72.15;100904.66;5111906;28;19911;-33
2022/04/25 02:01:19;;;;;;;;;;;;;;;7.78;74.63;100898.88;5114276;28;19956;-33
2022/04/25 02:03:47;;;;;;;;;;;;;;;7.78;72.76;100900.75;5113538;28;20332;-33
2022/04/25 02:06:12;;;;;;;;;;;;;;;7.81;72.45;100903.00;5113771;28;19918;-33
2022/04/25 02:08:38;;;;;;;;;;;;;;;7.81;73.53;100901.16;5113608;28;19915;-34
2022/04/25 02:13:48;;;;;;;;;;;;;;;7.77;74.71;100905.31;5113732;28;19919;-34
2022/04/25 02:16:13;;;;;;;;;;;;;;;7.66;75.33;100901.41;5114764;28;20253;-34
2022/04/25 02:18:41;;;;;;;;;;;;;;;7.64;73.62;100905.34;5113591;28;20041;-34
2022/04/25 02:21:06;;;;;;;;;;;;;;;7.62;75.05;100904.72;5114448;28;19950;-33
2022/04/25 02:23:31;;;;;;;;;;;;;;;7.59;75.63;100905.13;5114198;28;19916;-33
2022/04/25 02:25:57;;;;;;;;;;;;;;;7.58;73.19;100906.19;5114319;28;20275;-33
2022/04/25 02:28:23;;;;;;;;;;;;;;;7.55;74.08;100898.50;5113461;28;19911;-33
2022/04/25 02:30:51;;;;;;;;;;;;;;;7.54;73.02;100896.88;5114277;28;19915;-33
2022/04/25 02:33:16;;;;;;;;;;;;;;;7.53;76.20;100901.41;5113666;28;19912;-33
2022/04/25 02:35:41;;;;;;;;;;;;;;;7.51;74.77;100892.72;5114269;28;19919;-33
2022/04/25 02:38:07;;;;;;;;;;;;;;;7.52;75.17;100904.34;5113710;28;19938;-33
2022/04/25 02:40:32;;;;;;;;;;;;;;;7.43;74.10;100899.16;5114009;28;20221;-33
2022/04/25 02:42:57;;;;;;;;;;;;;;;7.38;74.99;100898.13;5113618;28;20260;-33
2022/04/25 02:45:22;;;;;;;;;;;;;;;7.36;78.43;100894.81;5115302;28;19943;-33
2022/04/25 02:47:48;;;;;;;;;;;;;;;7.35;75.77;100896.69;5117808;28;19923;-34
2022/04/25 02:50:13;;;;;;;;;;;;;;;7.35;74.50;100899.38;5117561;28;19912;-33
2022/04/25 02:52:38;;;;;;;;;;;;;;;7.33;77.85;100895.25;5118030;27;19911;-33
2022/04/25 02:55:03;;;;;;;;;;;;;;;7.32;75.52;100898.94;5117776;28;19912;-33
2022/04/25 02:57:29;;;;;;;;;;;;;;;7.34;76.44;100897.72;5117279;28;20020;-33
2022/04/25 02:59:54;;;;;;;;;;;;;;;7.35;75.07;100893.16;5117395;28;19912;-33
2022/04/25 03:02:19;;;;;;;;;;;;;;;7.37;75.97;100885.69;5117684;28;19959;-33
2022/04/25 03:04:44;;;;;;;;;;;;;;;7.34;74.29;100895.03;5117477;28;19964;-33
2022/04/25 03:07:09;;;;;;;;;;;;;;;7.34;74.06;100895.03;5117238;28;19911;-33
2022/04/25 03:09:35;;;;;;;;;;;;;;;7.35;73.81;100893.97;5117130;28;19912;-33
2022/04/25 03:12:00;;;;;;;;;;;;;;;7.36;73.88;100890.25;5116788;28;19911;-33
2022/04/25 03:14:26;;;;;;;;;;;;;;;7.33;74.35;100895.25;5117556;28;19915;-33
2022/04/25 03:16:51;;;;;;;;;;;;;;;7.32;74.31;100893.56;5117034;27;20282;-34
2022/04/25 03:19:17;;;;;;;;;;;;;;;7.31;76.44;100891.91;5116678;28;19915;-34
2022/04/25 03:21:42;;;;;;;;;;;;;;;7.29;74.85;100894.00;5116952;28;19911;-34
2022/04/25 03:24:08;;;;;;;;;;;;;;;7.26;76.15;100897.09;5117117;28;20293;-34
2022/04/25 03:26:33;;;;;;;;;;;;;;;7.23;75.02;100891.09;5117306;28;20020;-34
2022/04/25 03:28:58;;;;;;;;;;;;;;;7.25;74.39;100898.97;5116760;28;20347;-34
2022/04/25 03:31:23;;;;;;;;;;;;;;;7.22;73.99;100897.53;5117198;28;20323;-34
2022/04/25 03:33:48;;;;;;;;;;;;;;;7.20;73.93;100904.13;5116604;28;20420;-34
2022/04/25 03:36:14;;;;;;;;;;;;;;;7.19;73.92;100905.19;5115507;28;20002;-34
2022/04/25 03:38:42;;;;;;;;;;;;;;;7.19;75.32;100913.25;5116273;28;19915;-34
2022/04/25 03:41:07;;;;;;;;;;;;;;;7.13;74.22;100911.38;5116758;28;19915;-34
2022/04/25 03:43:34;;;;;;;;;;;;;;;7.08;73.46;100911.19;5116602;27;19934;-34
2022/04/25 03:45:59;;;;;;;;;;;;;;;7.07;73.91;100918.41;5116145;28;20388;-34
2022/04/25 03:48:24;;;;;;;;;;;;;;;7.06;73.70;100918.59;5116286;28;19916;-34
2022/04/25 03:50:50;;;;;;;;;;;;;;;7.03;73.67;100908.25;5116632;28;19916;-34
2022/04/25 03:53:15;;;;;;;;;;;;;;;7.01;73.85;100913.03;5116281;28;19911;-33
2022/04/25 03:58:24;;;;;;;;;;;;;;;6.93;75.61;100920.28;5116359;28;20400;-34
2022/04/25 04:00:50;;;;;;;;;;;;;;;6.88;77.54;100920.06;5116470;28;19916;-33
2022/04/25 04:03:17;;;;;;;;;;;;;;;6.83;75.45;100921.69;5116877;28;20332;-33
2022/04/25 04:05:42;;;;;;;;;;;;;;;6.75;76.74;100917.34;5115986;28;19916;-33
2022/04/25 04:08:08;;;;;;;;;;;;;;;6.72;76.78;100926.63;5115605;28;19911;-33
2022/04/25 04:10:34;;;;;;;;;;;;;;;6.69;77.94;100921.66;5116754;28;20022;-33
2022/04/25 04:13:00;;;;;;;;;;;;;;;6.69;76.62;100921.66;5115909;28;20008;-33
2022/04/25 04:15:25;;;;;;;;;;;;;;;6.65;81.59;100930.34;5116707;27;19919;-33
2022/04/25 04:17:51;;;;;;;;;;;;;;;6.61;80.09;100929.91;5115493;28;19912;-33
2022/04/25 04:20:16;;;;;;;;;;;;;;;6.58;78.03;100929.47;5115774;28;19912;-33
2022/04/25 04:22:41;;;;;;;;;;;;;;;6.58;79.98;100940.22;5115686;28;19911;-33
2022/04/25 04:25:11;;;;;;;;;;;;;;;6.54;80.85;100941.66;5115996;28;19926;-33
2022/04/25 04:27:36;;;;;;;;;;;;;;;6.52;81.00;100941.03;5116215;28;19918;-33
2022/04/25 04:30:06;;;;;;;;;;;;;;;6.51;78.67;100942.91;5115253;28;20263;-33
2022/04/25 04:32:32;;;;;;;;;;;;;;;6.52;78.41;100946.41;5115134;28;20372;-33
2022/04/25 04:34:57;;;;;;;;;;;;;;;6.53;77.84;100945.38;5115690;28;19923;-33
2022/04/25 04:37:26;;;;;;;;;;;;;;;6.50;79.71;100948.50;5115116;28;19934;-33
2022/04/25 04:40:28;;;;;;;;;;;;;;;6.47;78.20;100946.19;5115075;28;20006;-34
2022/04/25 04:42:37;;;;;;;;;;;;;;;6.45;80.91;100949.91;5115781;28;19919;-33
2022/04/25 04:45:02;;;;;;;;;;;;;;;6.44;79.44;100953.63;5115212;28;19912;-34
2022/04/25 04:47:31;;;;;;;;;;;;;;;6.43;79.18;100951.97;5115173;28;20048;-34
2022/04/25 04:49:56;;;;;;;;;;;;;;;6.44;78.91;100955.47;5114891;28;19911;-34
2022/04/25 04:52:21;;;;;;;;;;;;;;;6.43;80.06;100956.50;5115620;28;19918;-33
2022/04/25 04:54:46;;;;;;;;;;;;;;;6.47;78.73;100951.56;5115047;28;19916;-33
2022/04/25 04:57:11;;;;;;;;;;;;;;;6.51;80.03;100956.34;5115809;28;20003;-34
2022/04/25 04:59:36;;;;;;;;;;;;;;;6.57;77.98;100954.69;5115499;28;20360;-33
2022/04/25 05:02:02;;;;;;;;;;;;;;;6.54;81.10;100965.84;5114904;28;19921;-33
2022/04/25 05:04:27;;;;;;;;;;;;;;;6.56;80.38;100959.25;5114381;28;19911;-34
2022/04/25 05:06:53;;;;;;;;;;;;;;;6.59;79.89;100964.22;5114817;28;20279;-34
2022/04/25 05:09:18;;;;;;;;;;;;;;;6.66;78.77;100966.94;5114390;28;19912;-34
2022/04/25 05:11:43;;;;;;;;;;;;;;;6.72;81.18;100977.69;5115261;28;19911;-33
2022/04/25 05:14:10;;;;;;;;;;;;;;;6.75;80.05;100967.59;5114640;28;19919;-34
2022/04/25 05:16:35;;;;;;;;;;;;;;;6.79;79.45;100972.34;5115104;28;19993;-34
2022/04/25 05:19:02;;;;;;;;;;;;;;;6.81;83.67;100983.72;5114736;28;20286;-36
2022/04/25 05:21:27;;;;;;;;;;;;;;;6.76;83.98;100985.34;5114739;27;19916;-34
2022/04/25 05:23:53;;;;;;;;;;;;;;;6.77;83.11;100987.84;5114494;28;20239;-34
2022/04/25 05:26:18;;;;;;;;;;;;;;;6.86;83.50;100981.25;5114844;28;19911;-34
2022/04/25 05:28:43;;;;;;;;;;;;;;;6.97;81.43;100998.63;5115078;28;19911;-33
2022/04/25 05:31:08;;;;;;;;;;;;;;;7.07;80.81;100999.06;5114579;28;19955;-33
2022/04/25 05:33:33;;;;;;;;;;;;;;;7.14;81.15;100993.72;5114194;28;20404;-34
2022/04/25 05:35:59;;;;;;;;;;;;;;;7.22;80.05;100998.88;5114423;28;19966;-33
2022/04/25 05:38:24;;;;;;;;;;;;;;;7.29;79.42;100999.72;5113871;28;19942;-33
2022/04/25 05:40:50;;;;;;;;;;;;;;;7.35;80.92;101004.28;5114414;28;19966;-34
2022/04/25 05:43:16;;;;;;;;;;;;;;;7.33;84.22;101000.16;5114118;28;19918;-33
2022/04/25 05:45:43;;;;;;;;;;;;;;;7.27;82.98;101009.88;5114829;28;19912;-34
2022/04/25 05:53:36;;;;;;;;;;;;;;;7.39;83.11;101013.59;5113160;28;19923;-34
2022/04/25 05:56:02;;;;;;;;;;;;;;;7.47;80.69;101016.09;5113362;28;19912;-34
2022/04/25 05:58:27;;;;;;;;;;;;;;;7.52;83.49;101023.56;5114255;28;19939;-34
2022/04/25 06:00:52;;;;;;;;;;;;;;;7.54;83.85;101020.66;5114528;28;19934;-34
2022/04/25 06:03:17;;;;;;;;;;;;;;;7.61;84.06;101026.84;5114384;28;20329;-34
2022/04/25 06:05:43;;;;;;;;;;;;;;;7.63;84.93;101024.81;5114036;28;19918;-33
2022/04/25 06:08:08;;;;;;;;;;;;;;;7.67;83.48;101018.78;5113662;28;19911;-34
2022/04/25 06:10:33;;;;;;;;;;;;;;;7.73;84.59;101025.22;5114039;28;19956;-34
2022/04/25 06:12:59;;;;;;;;;;;;;;;7.75;83.93;101025.81;5113915;28;19937;-33
2022/04/25 06:15:25;;;;;;;;;;;;;;;7.77;86.69;101029.16;5113604;28;19912;-34
2022/04/25 06:17:54;;;;;;;;;;;;;;;7.77;86.18;101037.22;5113899;28;19912;-34
2022/04/25 06:20:19;;;;;;;;;;;;;;;7.79;85.62;101027.06;5115867;28;19912;-34
2022/04/25 06:22:58;;;;;;;;;;;;;;;7.86;84.35;101033.28;5117968;28;20263;-34
2022/04/25 06:25:23;;;;;;;;;;;;;;;7.89;86.37;101034.72;5118427;28;20020;-34
2022/04/25 06:27:49;;;;;;;;;;;;;;;7.93;84.51;101025.19;5117495;28;19954;-34
2022/04/25 06:30:14;;;;;;;;;;;;;;;7.99;84.53;101030.56;5118065;28;19915;-35
2022/04/25 06:32:40;;;;;;;;;;;;;;;8.08;83.92;101033.03;5117703;28;19916;-34
2022/04/25 06:35:05;;;;;;;;;;;;;;;8.06;86.42;101032.44;5118513;28;19998;-34
2022/04/25 06:37:30;;;;;;;;;;;;;;;8.07;85.54;101034.91;5117623;28;19911;-34
2022/04/25 06:39:55;;;;;;;;;;;;;;;8.14;87.04;101032.19;5117703;27;19911;-34
2022/04/25 06:42:21;;;;;;;;;;;;;;;8.16;86.44;101040.91;5117417;28;19968;-34
2022/04/25 06:44:47;;;;;;;;;;;;;;;8.21;86.59;101038.41;5117403;28;19916;-34
2022/04/25 06:47:12;;;;;;;;;;;;;;;8.30;86.41;101041.72;5118241;28;19912;-34
2022/04/25 06:49:38;;;;;;;;;;;;;;;8.29;88.35;101046.25;5117268;28;19999;-34
2022/04/25 06:52:05;;;;;;;;;;;;;;;8.30;86.96;101039.84;5117719;28;20340;-34
2022/04/25 06:54:31;;;;;;;;;;;;;;;8.31;87.78;101043.34;5116988;28;20435;-34
2022/04/25 06:56:57;;;;;;;;;;;;;;;8.30;88.21;101047.09;5117679;28;20010;-34
2022/04/25 06:59:23;;;;;;;;;;;;;;;8.27;88.32;101053.72;5118041;28;19912;-34
2022/04/25 07:01:49;;;;;;;;;;;;;;;8.28;88.02;101049.97;5117545;28;19918;-33
2022/04/25 07:04:16;;;;;;;;;;;;;;;8.31;88.92;101054.13;5116959;28;19987;-34
2022/04/25 07:06:41;;;;;;;;;;;;;;;8.33;88.56;101052.88;5117732;28;19919;-34
2022/04/25 07:09:07;;;;;;;;;;;;;;;8.39;88.74;101054.75;5117249;28;19915;-33
2022/04/25 07:11:33;;;;;;;;;;;;;;;8.39;87.46;101056.63;5117102;28;20280;-34
2022/04/25 07:13:58;;;;;;;;;;;;;;;8.45;87.47;101055.78;5116726;28;20044;-33
2022/04/25 07:16:25;;;;;;;;;;;;;;;8.50;86.48;101058.69;5117395;28;19919;-34
2022/04/25 07:18:50;;;;;;;;;;;;;;;8.54;86.56;101062.63;5116603;27;19915;-34
2022/04/25 07:29:28;;;;;;;;;;;;;;;8.56;87.23;101062.38;5117401;28;19919;-33
2022/04/25 07:31:53;;;;;;;;;;;;;;;8.55;88.02;101066.13;5117110;28;19912;-34
2022/04/25 07:34:19;;;;;;;;;;;;;;;8.55;87.73;101066.97;5116700;28;20356;-34
2022/04/25 07:36:50;;;;;;;;;;;;;;;8.55;87.78;101060.75;5116416;28;19911;-34
2022/04/25 07:39:16;;;;;;;;;;;;;;;8.55;87.08;101075.03;5117174;28;19911;-34
2022/04/25 07:41:44;;;;;;;;;;;;;;;8.41;90.38;101082.31;5116999;28;20007;-34
2022/04/25 07:44:09;;;;;;;;;;;;;;;8.29;90.84;101088.53;5116693;28;20382;-33
2022/04/25 07:46:36;;;;;;;;;;;;;;;8.25;90.30;101078.19;5116790;28;20006;-33
2022/04/25 07:49:01;;;;;;;;;;;;;;;8.22;91.73;101072.38;5117194;27;20036;-33
2022/04/25 07:51:26;;;;;;;;;;;;;;;8.18;91.73;101085.44;5116362;28;20013;-33
2022/04/25 07:53:51;;;;;;;;;;;;;;;8.09;93.72;101099.34;5116010;28;19912;-33
2022/04/25 07:56:17;;;;;;;;;;;;;;;8.07;93.44;101096.03;5116270;28;19968;-33
2022/04/25 07:58:42;;;;;;;;;;;;;;;7.98;92.46;101096.22;5116421;28;20263;-34
2022/04/25 08:01:07;;;;;;;;;;;;;;;7.97;94.16;101097.28;5116361;28;19912;-34
2022/04/25 08:03:35;;;;;;;;;;;;;;;7.90;95.03;101101.81;5116503;28;19934;-34
2022/04/25 08:06:00;;;;;;;;;;;;;;;7.89;94.41;101099.34;5116003;28;19937;-34
2022/04/25 08:08:25;;;;;;;;;;;;;;;7.94;94.10;101094.16;5115940;28;20021;-33
2022/04/25 08:10:50;;;;;;;;;;;;;;;7.98;93.25;101104.31;5116057;28;19919;-34
2022/04/25 08:18:43;;;;;;;;;;;;;;;8.13;91.13;101105.97;5116144;28;20291;-34
2022/04/25 08:21:08;;;;;;;;;;;;;;;8.19;90.73;101113.19;5115491;28;19912;-34
2022/04/25 08:23:33;;;;;;;;;;;;;;;8.24;90.82;101118.78;5115861;28;19923;-34
2022/04/25 08:25:59;;;;;;;;;;;;;;;8.30;91.12;101117.97;5115736;28;19912;-34
2022/04/25 08:28:25;;;;;;;;;;;;;;;8.29;94.18;101116.31;5115654;28;20408;-34
2022/04/25 08:30:51;;;;;;;;;;;;;;;8.25;93.04;101123.16;5115564;28;19961;-34
2022/04/25 08:33:17;;;;;;;;;;;;;;;8.23;93.48;101117.13;5115076;27;20408;-34
2022/04/25 08:35:42;;;;;;;;;;;;;;;8.27;92.00;101123.78;5115143;28;20065;-34
2022/04/25 08:38:07;;;;;;;;;;;;;;;8.34;91.31;101123.75;5115339;28;19961;-34
2022/04/25 08:40:33;;;;;;;;;;;;;;;8.38;90.87;101125.84;5115256;28;19963;-34
2022/04/25 08:42:59;;;;;;;;;;;;;;;8.34;95.62;101131.84;5114280;28;19912;-34
2022/04/25 08:45:24;;;;;;;;;;;;;;;8.30;94.70;101133.31;5115370;28;19915;-34
2022/04/25 08:47:52;;;;;;;;;;;;;;;8.22;96.72;101137.88;5114805;28;19962;-34
2022/04/25 08:50:18;;;;;;;;;;;;;;;8.27;93.93;101145.34;5115369;28;19911;-34
2022/04/25 08:52:43;;;;;;;;;;;;;;;8.33;92.93;101139.09;5115004;28;19911;-33
2022/04/25 08:55:09;;;;;;;;;;;;;;;8.38;93.72;101142.03;5115521;28;19912;-33
2022/04/25 08:57:35;;;;;;;;;;;;;;;8.42;93.68;101148.66;5114652;28;20015;-33
2022/04/25 09:00:04;;;;;;;;;;;;;;;8.45;95.37;101153.66;5115649;28;19922;-34
2022/04/25 09:02:29;;;;;;;;;;;;;;;8.44;96.79;101152.00;5113828;28;19912;-33
2022/04/25 09:04:54;;;;;;;;;;;;;;;8.48;94.08;101153.19;5115105;28;19912;-33
2022/04/25 09:07:19;;;;;;;;;;;;;;;8.43;98.76;101158.41;5114894;27;20279;-33
2022/04/25 09:09:45;;;;;;;;;;;;;;;8.48;97.29;101153.19;5114766;28;19911;-33
2022/04/25 09:12:11;;;;;;;;;;;;;;;8.55;97.19;101165.88;5115538;27;20357;-34
2022/04/25 09:14:37;;;;;;;;;;;;;;;8.60;97.74;101166.06;5114803;28;20014;-34
2022/04/25 09:17:03;;;;;;;;;;;;;;;8.60;98.06;101163.38;5114761;28;19918;-34
2022/04/25 09:19:29;;;;;;;;;;;;;;;8.63;97.83;101168.31;5113604;28;20330;-34
2022/04/25 09:21:54;;;;;;;;;;;;;;;8.57;97.86;101166.47;5114442;28;20371;-34
2022/04/25 09:24:20;;;;;;;;;;;;;;;8.65;97.04;101167.09;5114724;28;19922;-34
2022/04/25 09:26:46;;;;;;;;;;;;;;;8.68;96.14;101168.50;5115115;28;19911;-34
2022/04/25 09:29:11;;;;;;;;;;;;;;;8.74;96.00;101178.47;5114426;27;19911;-33
2022/04/25 09:31:46;;;;;;;;;;;;;;;8.77;95.69;101176.16;5113954;28;19939;-33
2022/04/25 09:34:15;;;;;;;;;;;;;;;8.79;95.64;101181.38;5114201;28;19911;-34
2022/04/25 09:36:47;;;;;;;;;;;;;;;8.82;95.48;101172.00;5114822;28;20278;-34
2022/04/25 09:39:30;;;;;;;;;;;;;;;8.87;94.40;101174.91;5114246;28;19998;-34
2022/04/25 09:41:55;;;;;;;;;;;;;;;8.82;95.82;101186.31;5114865;28;19919;-34
2022/04/25 09:44:21;;;;;;;;;;;;;;;8.77;95.17;101184.25;5114744;28;20243;-34
2022/04/25 09:46:47;;;;;;;;;;;;;;;8.73;95.81;101184.88;5114364;28;19916;-34
2022/04/25 09:49:18;;;;;;;;;;;;;;;8.80;94.60;101184.91;5114247;28;19987;-34
2022/04/25 09:51:58;;;;;;;;;;;;;;;8.82;94.61;101186.31;5114801;28;19916;-34
2022/04/25 09:54:24;;;;;;;;;;;;;;;8.84;94.00;101181.56;5113349;28;19995;-34
2022/04/25 09:56:51;;;;;;;;;;;;;;;8.89;93.94;101187.16;5114744;28;19998;-34
2022/04/25 09:59:18;;;;;;;;;;;;;;;8.92;94.45;101196.69;5114109;28;20372;-34
2022/04/25 10:01:45;;;;;;;;;;;;;;;8.89;94.42;101200.63;5113955;28;20266;-34
2022/04/25 10:04:31;;;;;;;;;;;;;;;8.85;95.49;101199.41;5113708;28;19923;-34
2022/04/25 10:06:59;;;;;;;;;;;;;;;8.81;94.87;101206.25;5114349;28;20287;-34
2022/04/25 10:09:24;;;;;;;;;;;;;;;8.77;97.00;101202.31;5113767;28;20003;-34
2022/04/25 10:11:51;;;;;;;;;;;;;;;8.74;96.89;101211.66;5114526;28;20360;-34
2022/04/25 10:14:16;;;;;;;;;;;;;;;8.73;97.15;101217.25;5114175;28;20325;-34
2022/04/25 10:16:43;;;;;;;;;;;;;;;8.79;95.62;101213.72;5114725;28;19956;-34
2022/04/25 10:19:08;;;;;;;;;;;;;;;8.87;95.83;101218.06;5114186;28;19911;-34
2022/04/25 10:21:34;;;;;;;;;;;;;;;8.96;96.24;101216.78;5114338;28;19980;-34
2022/04/25 10:23:59;;;;;;;;;;;;;;;9.06;95.95;101216.34;5113607;28;19916;-34
2022/04/25 10:26:25;;;;;;;;;;;;;;;9.08;96.56;101215.13;5113773;28;19912;-34
2022/04/25 10:28:54;;;;;;;;;;;;;;;9.03;95.34;101221.16;5113728;28;19912;-34
2022/04/25 10:31:32;;;;;;;;;;;;;;;8.99;94.62;101224.47;5113250;28;19915;-34
2022/04/25 10:33:58;;;;;;;;;;;;;;;9.09;93.78;101224.88;5114269;28;19936;-34
2022/04/25 10:36:38;;;;;;;;;;;;;;;9.17;94.80;101221.91;5114099;28;20014;-34
2022/04/25 10:39:20;;;;;;;;;;;;;;;9.15;94.43;101220.47;5113674;28;19911;-34
2022/04/25 10:44:28;;;;;;;;;;;;;;;9.18;93.74;101228.16;5113928;28;19989;-34
2022/04/25 10:47:03;;;;;;;;;;;;;;;9.22;94.23;101230.22;5113855;28;20357;-34
2022/04/25 10:49:31;;;;;;;;;;;;;;;9.22;93.08;101237.47;5113202;28;20363;-34
2022/04/25 10:51:56;;;;;;;;;;;;;;;9.27;92.68;101243.06;5113397;28;20291;-34
2022/04/25 10:54:23;;;;;;;;;;;;;;;9.23;92.16;101248.06;5113299;28;19911;-34
2022/04/25 10:57:06;;;;;;;;;;;;;;;9.27;92.74;101245.75;5113263;28;19912;-34
2022/04/25 10:59:31;;;;;;;;;;;;;;;9.18;91.80;101247.06;5113566;28;20001;-34
2022/04/25 11:01:57;;;;;;;;;;;;;;;9.21;92.15;101249.31;5112836;28;20346;-34
2022/04/25 11:04:23;;;;;;;;;;;;;;;9.17;92.69;101250.75;5113215;28;19911;-34
2022/04/25 11:07:08;;;;;;;;;;;;;;;9.16;92.03;101251.81;5115789;28;19918;-34
2022/04/25 11:09:38;;;;;;;;;;;;;;;9.07;92.82;101251.22;5117534;28;19939;-34
2022/04/25 11:12:04;;;;;;;;;;;;;;;9.05;91.59;101257.88;5117477;28;20002;-34
2022/04/25 11:14:30;;;;;;;;;;;;;;;9.02;92.38;101256.41;5117724;28;20425;-34
2022/04/25 11:17:12;;;;;;;;;;;;;;;8.98;92.44;101263.28;5117696;28;19918;-34
2022/04/25 11:19:42;;;;;;;;;;;;;;;8.92;93.16;101261.41;5117304;28;19922;-34
2022/04/25 11:22:07;;;;;;;;;;;;;;;8.95;92.47;101266.41;5117755;28;19911;-34
2022/04/25 11:24:34;;;;;;;;;;;;;;;8.94;92.90;101264.75;5117633;28;19916;-34
2022/04/25 11:27:00;;;;;;;;;;;;;;;8.90;93.03;101267.03;5116907;28;19949;-34
2022/04/25 11:29:26;;;;;;;;;;;;;;;8.87;93.02;101267.44;5116849;28;19911;-34
2022/04/25 11:31:51;;;;;;;;;;;;;;;8.83;92.71;101266.19;5117780;28;19920;-34
2022/04/25 11:34:19;;;;;;;;;;;;;;;8.89;92.88;101273.47;5116772;28;19922;-34
2022/04/25 11:36:45;;;;;;;;;;;;;;;8.96;93.20;101276.97;5116988;28;19918;-34
2022/04/25 11:41:58;;;;;;;;;;;;;;;9.14;91.09;101272.78;5117225;28;19974;-34
2022/04/25 11:44:24;;;;;;;;;;;;;;;9.24;91.53;101278.56;5116225;28;19959;-34
2022/04/25 11:46:50;;;;;;;;;;;;;;;9.33;91.50;101280.00;5116275;28;19957;-34
2022/04/25 11:49:38;;;;;;;;;;;;;;;9.40;92.57;101278.09;5116814;28;19916;-34
2022/04/25 11:52:04;;;;;;;;;;;;;;;9.44;92.21;101275.81;5117338;28;20263;-34
2022/04/25 11:54:33;;;;;;;;;;;;;;;9.43;91.86;101271.47;5116692;28;19912;-34
2022/04/25 11:57:02;;;;;;;;;;;;;;;9.40;91.80;101283.50;5117205;28;19968;-34
2022/04/25 11:59:28;;;;;;;;;;;;;;;9.39;91.37;101284.56;5116382;28;19922;-34
2022/04/25 12:01:53;;;;;;;;;;;;;;;9.34;90.78;101284.38;5116174;28;20287;-34
2022/04/25 12:04:20;;;;;;;;;;;;;;;9.36;91.66;101279.56;5117127;27;19970;-34
2022/04/25 12:07:09;;;;;;;;;;;;;;;9.48;90.68;101275.19;5116583;28;19916;-34
2022/04/25 12:15:35;;;;;;;;;;;;;;;9.93;90.84;101279.75;5053989;28;19999;-34
2022/04/25 12:18:19;;;;;;;;;;;;;;;10.05;91.73;101286.97;5052047;28;19951;-34
2022/04/25 12:20:47;;;;;;;;;;;;;;;10.09;89.68;101287.34;5053123;28;19913;-34
2022/04/25 12:23:19;;;;;;;;;;;;;;;10.13;90.18;101295.84;5053521;28;20020;-34
2022/04/25 12:25:44;;;;;;;;;;;;;;;10.16;88.97;101285.44;5053717;28;19913;-34
2022/04/25 12:28:12;;;;;;;;;;;;;;;10.16;89.46;101287.34;5053333;28;19919;-34
2022/04/25 12:30:46;;;;;;;;;;;;;;;10.23;88.99;101280.81;5052866;28;19912;-34
2022/04/25 12:33:13;;;;;;;;;;;;;;;10.35;88.97;101278.28;5052761;28;19912;-34
2022/04/25 12:35:38;;;;;;;;;;;;;;;10.52;88.25;101283.97;5053286;28;20323;-34
2022/04/25 12:38:07;;;;;;;;;;;;;;;10.66;88.20;101280.13;5052682;28;19912;-34
2022/04/25 12:40:33;;;;;;;;;;;;;;;10.77;88.01;101289.38;5052869;28;19913;-35
2022/04/25 12:42:59;;;;;;;;;;;;;;;10.85;87.98;101283.72;5035505;28;20430;-34
2022/04/25 12:45:24;;;;;;;;;;;;;;;10.90;86.75;101283.88;5053950;28;19955;-34
2022/04/25 12:47:53;;;;;;;;;;;;;;;10.86;84.89;101281.81;5115706;28;19912;-34
2022/04/25 12:50:38;;;;;;;;;;;;;;;10.74;82.90;101281.75;5115984;28;19907;-34
2022/04/25 12:53:04;;;;;;;;;;;;;;;10.76;85.23;101285.84;5115458;28;19935;-34
2022/04/25 12:55:45;;;;;;;;;;;;;;;10.78;85.29;101282.91;5115580;28;19908;-34
2022/04/25 12:58:10;;;;;;;;;;;;;;;10.77;83.44;101283.97;5115811;28;19912;-34
2022/04/25 13:00:47;;;;;;;;;;;;;;;10.73;82.10;101289.00;5115506;28;20367;-34
2022/04/25 13:03:13;;;;;;;;;;;;;;;10.74;83.63;101287.16;5115152;28;19919;-34
2022/04/25 13:05:39;;;;;;;;;;;;;;;10.80;83.70;101273.56;5115344;28;19920;-34
2022/04/25 13:08:04;;;;;;;;;;;;;;;10.88;83.54;101280.53;5114708;28;20394;-34
2022/04/25 13:10:29;;;;;;;;;;;;;;;10.92;82.72;101283.63;5115792;28;19918;-34
2022/04/25 13:12:55;;;;;;;;;;;;;;;10.88;82.41;101282.41;5114989;28;20279;-34
2022/04/25 13:15:22;;;;;;;;;;;;;;;10.86;82.90;101279.94;5114661;28;19915;-34
2022/04/25 13:17:51;;;;;;;;;;;;;;;10.78;82.18;101288.34;5115098;28;19915;-34
2022/04/25 13:20:19;;;;;;;;;;;;;;;10.70;82.09;101288.63;5114859;28;19922;-34
2022/04/25 13:22:45;;;;;;;;;;;;;;;10.67;82.49;101283.66;5114843;28;19912;-34